createdAt,value
2023-08-08T00:01:52.166Z,15.38
2023-08-08T00:06:55.761Z,15.39
2023-08-08T00:11:59.145Z,15.42
2023-08-08T00:17:02.399Z,15.39
2023-08-08T00:22:05.547Z,15.40
2023-08-08T00:27:08.830Z,15.43
2023-08-08T00:32:11.814Z,15.54
2023-08-08T00:37:14.877Z,15.73
2023-08-08T00:42:17.607Z,15.99
2023-08-08T00:47:20.418Z,16.40
2023-08-08T00:52:24.872Z,16.72
2023-08-08T00:57:27.740Z,16.91
2023-08-08T01:02:31.510Z,16.78
2023-08-08T01:07:46.045Z,16.67
2023-08-08T01:12:53.546Z,16.84
2023-08-08T01:17:56.696Z,17.29
2023-08-08T01:23:24.038Z,17.53
2023-08-08T01:28:27.598Z,17.66
2023-08-08T01:33:30.464Z,17.60
2023-08-08T01:38:35.828Z,17.69
2023-08-08T01:43:40.304Z,18.16
2023-08-08T01:48:47.147Z,18.84
2023-08-08T01:53:51.717Z,19.08
2023-08-08T01:58:56.395Z,18.89
2023-08-08T02:03:59.489Z,18.77
2023-08-08T02:09:04.589Z,19.02
2023-08-08T02:14:08.045Z,18.88
2023-08-08T02:19:10.958Z,18.58
2023-08-08T02:24:14.490Z,18.49
2023-08-08T02:29:17.512Z,18.54
2023-08-08T02:34:20.364Z,18.51
2023-08-08T02:39:24.387Z,18.48
2023-08-08T02:44:28.117Z,18.54
2023-08-08T02:49:31.105Z,18.59
2023-08-08T02:54:35.344Z,18.82
2023-08-08T02:59:38.800Z,19.20
2023-08-08T03:04:43.462Z,19.26
2023-08-08T03:09:46.672Z,19.58
2023-08-08T03:14:49.462Z,20.18
2023-08-08T03:19:52.596Z,21.15
2023-08-08T03:24:55.974Z,21.86
2023-08-08T03:29:58.769Z,22.11
2023-08-08T03:35:01.734Z,22.02
2023-08-08T03:40:06.797Z,21.62
2023-08-08T03:45:10.171Z,21.48
2023-08-08T03:50:13.333Z,22.35
2023-08-08T03:55:16.734Z,23.06
2023-08-08T04:00:19.574Z,23.20
2023-08-08T04:05:22.965Z,23.09
2023-08-08T04:10:25.869Z,23.24
2023-08-08T04:15:29.544Z,23.50
2023-08-08T04:20:32.572Z,23.70
2023-08-08T04:25:35.206Z,24.35
2023-08-08T04:30:38.391Z,24.58
2023-08-08T04:35:41.339Z,24.67
2023-08-08T04:40:44.173Z,25.15
2023-08-08T04:45:47.001Z,25.23
2023-08-08T04:50:50.294Z,24.77
2023-08-08T04:55:53.004Z,24.96
2023-08-08T05:00:56.578Z,25.05
2023-08-08T05:06:00.565Z,25.32
2023-08-08T05:11:03.761Z,25.50
2023-08-08T05:16:07.748Z,25.02
2023-08-08T05:21:10.795Z,25.14
2023-08-08T05:26:16.266Z,25.33
2023-08-08T05:31:19.097Z,25.06
2023-08-08T05:36:22.501Z,24.12
2023-08-08T05:41:25.311Z,23.94
2023-08-08T05:46:28.058Z,23.94
2023-08-08T05:51:31.480Z,23.78
2023-08-08T05:56:38.515Z,23.04
2023-08-08T06:01:41.479Z,22.60
2023-08-08T06:06:45.293Z,22.41
2023-08-08T06:11:48.136Z,22.30
2023-08-08T06:16:51.459Z,22.53
2023-08-08T06:21:56.129Z,23.28
2023-08-08T06:26:59.031Z,23.67
2023-08-08T06:32:02.006Z,25.07
2023-08-08T06:37:05.405Z,25.78
2023-08-08T06:42:09.956Z,24.57
2023-08-08T06:47:23.824Z,23.26
2023-08-08T06:52:26.954Z,22.40
2023-08-08T06:57:33.882Z,22.20
2023-08-08T07:02:36.856Z,22.20
2023-08-08T07:07:40.203Z,22.55
2023-08-08T07:12:43.498Z,22.78
2023-08-08T07:17:46.472Z,22.74
2023-08-08T07:22:49.860Z,23.57
2023-08-08T07:27:52.731Z,24.10
2023-08-08T07:32:56.080Z,24.74
2023-08-08T07:37:59.378Z,24.72
2023-08-08T07:43:02.200Z,25.07
2023-08-08T07:48:06.595Z,24.97
2023-08-08T07:53:10.078Z,24.33
2023-08-08T07:58:12.981Z,23.79
2023-08-08T08:03:17.076Z,23.31
2023-08-08T08:08:20.498Z,23.28
2023-08-08T08:13:23.413Z,23.48
2023-08-08T08:18:26.341Z,23.98
2023-08-08T08:23:30.453Z,24.74
2023-08-08T08:28:33.412Z,25.25
2023-08-08T08:33:37.232Z,25.02
2023-08-08T08:38:40.089Z,24.79
2023-08-08T08:43:42.879Z,24.45
2023-08-08T08:48:46.967Z,23.67
2023-08-08T08:53:51.558Z,23.52
2023-08-08T08:58:54.458Z,24.42
2023-08-08T09:03:59.650Z,24.91
2023-08-08T09:09:16.426Z,24.40
2023-08-08T09:14:22.029Z,24.12
2023-08-08T09:19:26.692Z,24.57
2023-08-08T09:24:30.128Z,25.76
2023-08-08T09:29:33.452Z,26.06
2023-08-08T09:34:36.673Z,25.32
2023-08-08T09:39:40.282Z,24.72
2023-08-08T09:44:44.349Z,24.92
2023-08-08T09:49:47.371Z,24.74
2023-08-08T09:54:51.250Z,23.79
2023-08-08T09:59:54.509Z,23.15
2023-08-08T10:04:59.861Z,23.16
2023-08-08T10:10:03.112Z,23.06
2023-08-08T10:15:11.670Z,23.56
2023-08-08T10:20:15.189Z,23.66
2023-08-08T10:25:26.638Z,23.57
2023-08-08T10:30:29.527Z,23.47
2023-08-08T10:35:39.498Z,23.59
2023-08-08T10:40:44.549Z,23.24
2023-08-08T10:45:54.219Z,22.97
2023-08-08T10:51:03.421Z,22.98
2023-08-08T10:56:08.714Z,23.30
2023-08-08T11:01:13.915Z,23.41
2023-08-08T11:06:17.878Z,23.75
2023-08-08T11:11:20.709Z,24.00
2023-08-08T11:16:24.025Z,24.01
2023-08-08T11:21:27.964Z,24.11
2023-08-08T11:26:33.462Z,23.70
2023-08-08T11:31:37.821Z,23.13
2023-08-08T11:36:41.258Z,23.08
2023-08-08T11:41:44.258Z,23.12
2023-08-08T11:46:51.203Z,23.10
2023-08-08T11:52:01.651Z,23.15
2023-08-08T11:57:04.838Z,22.85
2023-08-08T12:02:07.624Z,22.77
2023-08-08T12:07:11.589Z,22.65
2023-08-08T12:17:23.665Z,22.60
2023-08-08T12:22:26.869Z,22.59
2023-08-08T12:27:30.153Z,22.44
2023-08-08T12:32:34.500Z,22.48
2023-08-08T12:37:39.049Z,22.53
2023-08-08T12:42:41.968Z,22.51
2023-08-08T12:47:45.451Z,23.41
2023-08-08T12:52:48.455Z,23.56
2023-08-08T12:57:51.169Z,22.82
2023-08-08T13:02:55.411Z,22.39
2023-08-08T13:07:58.899Z,22.15
2023-08-08T13:13:02.380Z,22.01
2023-08-08T13:18:06.304Z,23.77
2023-08-08T13:23:09.626Z,25.21
2023-08-08T13:28:13.333Z,25.91
2023-08-08T13:33:20.275Z,26.12
2023-08-08T13:38:25.271Z,26.25
2023-08-08T13:43:28.631Z,23.86
2023-08-08T13:48:31.379Z,22.06
2023-08-08T13:53:35.829Z,21.24
2023-08-08T13:58:39.186Z,20.76
2023-08-08T14:03:42.489Z,20.83
2023-08-08T14:08:47.185Z,20.23
2023-08-08T14:13:50.286Z,19.96
2023-08-08T14:18:53.638Z,19.68
2023-08-08T14:23:58.053Z,19.49
2023-08-08T14:29:01.419Z,19.29
2023-08-08T14:34:04.732Z,19.06
2023-08-08T14:39:08.313Z,18.85
2023-08-08T14:44:11.287Z,18.72
2023-08-08T14:49:15.288Z,18.47
2023-08-08T14:54:18.936Z,18.10
2023-08-08T14:59:22.652Z,17.78
2023-08-08T15:04:26.503Z,17.54
2023-08-08T15:09:30.312Z,17.36
2023-08-08T15:14:33.145Z,17.20
2023-08-08T15:19:35.985Z,17.06
2023-08-08T15:24:39.792Z,17.04
2023-08-08T15:29:42.871Z,17.01
2023-08-08T15:34:46.582Z,16.81
2023-08-08T15:39:49.366Z,16.67
2023-08-08T15:44:52.716Z,16.52
2023-08-08T15:49:56.603Z,16.45
2023-08-08T15:55:00.261Z,16.39
2023-08-08T16:00:05.202Z,16.36
2023-08-08T16:05:15.411Z,16.27
2023-08-08T16:10:18.401Z,16.11
2023-08-08T16:15:23.089Z,15.97
2023-08-08T16:20:26.148Z,15.91
2023-08-08T16:25:29.756Z,15.84
2023-08-08T16:30:32.617Z,15.70
2023-08-08T16:35:35.827Z,15.68
2023-08-08T16:40:38.873Z,15.62
2023-08-08T16:45:42.148Z,15.48
2023-08-08T16:50:46.168Z,15.37
2023-08-08T16:55:49.083Z,15.25
2023-08-08T17:00:54.843Z,15.18
2023-08-08T17:05:58.308Z,15.16
2023-08-08T17:11:01.085Z,15.14
2023-08-08T17:16:03.928Z,15.08
2023-08-08T17:21:07.344Z,15.09
2023-08-08T17:26:10.791Z,15.03
2023-08-08T17:31:13.536Z,14.96
2023-08-08T17:36:16.727Z,14.91
2023-08-08T17:41:19.870Z,14.90
2023-08-08T17:46:22.648Z,14.91
2023-08-08T17:51:26.070Z,14.84
2023-08-08T17:56:28.880Z,14.78
2023-08-08T18:01:32.064Z,14.73
2023-08-08T18:06:35.221Z,14.73
2023-08-08T18:11:41.120Z,14.69
2023-08-08T18:16:43.884Z,14.60
2023-08-08T18:21:47.624Z,14.47
2023-08-08T18:26:50.467Z,14.34
2023-08-08T18:31:54.010Z,14.32
2023-08-08T18:36:57.202Z,14.34
2023-08-08T18:42:00.259Z,14.35
2023-08-08T18:47:03.363Z,14.31
2023-08-08T18:52:07.021Z,14.33
2023-08-08T18:57:09.823Z,14.52
2023-08-08T19:02:13.397Z,14.60
2023-08-08T19:07:16.870Z,14.65
2023-08-08T19:12:22.398Z,14.58
2023-08-08T19:17:25.392Z,14.38
2023-08-08T19:22:28.812Z,14.22
2023-08-08T19:27:32.074Z,14.24
2023-08-08T19:32:35.045Z,14.29
2023-08-08T19:37:38.593Z,14.27
2023-08-08T19:42:41.459Z,14.14
2023-08-08T19:47:44.239Z,14.14
2023-08-08T19:52:49.076Z,14.38
2023-08-08T19:57:51.806Z,14.57
2023-08-08T20:02:54.878Z,14.78
2023-08-08T20:07:59.139Z,14.86
2023-08-08T20:13:04.828Z,14.81
2023-08-08T20:18:08.225Z,14.80
2023-08-08T20:23:12.657Z,14.90
2023-08-08T20:28:15.393Z,15.02
2023-08-08T20:33:18.844Z,15.13
2023-08-08T20:38:23.373Z,15.18
2023-08-08T20:43:26.599Z,15.15
2023-08-08T20:48:30.802Z,15.13
2023-08-08T20:53:55.421Z,15.13
2023-08-08T20:58:58.587Z,15.02
2023-08-08T21:04:01.347Z,14.92
2023-08-08T21:09:05.344Z,14.87
2023-08-08T21:14:08.248Z,14.79
2023-08-08T21:19:11.069Z,14.72
2023-08-08T21:24:14.606Z,14.64
2023-08-08T21:29:17.550Z,14.73
2023-08-08T21:34:21.068Z,14.82
2023-08-08T21:39:24.084Z,14.98
2023-08-08T21:44:27.401Z,15.08
2023-08-08T21:49:30.251Z,15.15
2023-08-08T21:54:33.392Z,15.19
2023-08-08T21:59:39.464Z,15.26
2023-08-08T22:04:43.097Z,15.32
2023-08-08T22:09:46.389Z,15.42
2023-08-08T22:14:49.530Z,15.37
2023-08-08T22:19:52.281Z,15.28
2023-08-08T22:24:55.059Z,15.18
2023-08-08T22:29:57.806Z,15.06
2023-08-08T22:35:00.566Z,14.84
2023-08-08T22:40:04.836Z,14.78
2023-08-08T22:45:08.722Z,14.81
2023-08-08T22:50:11.530Z,14.77
2023-08-08T22:55:14.543Z,14.70
2023-08-08T23:00:17.374Z,14.58
2023-08-08T23:05:20.352Z,14.44
2023-08-08T23:10:23.461Z,14.24
2023-08-08T23:15:26.995Z,14.31
2023-08-08T23:20:30.460Z,14.34
2023-08-08T23:25:34.810Z,14.41
2023-08-08T23:30:37.494Z,14.49
2023-08-08T23:35:40.584Z,14.59
2023-08-08T23:40:43.367Z,14.66
2023-08-08T23:45:46.160Z,14.75
2023-08-08T23:50:49.183Z,14.84
2023-08-08T23:55:52.081Z,14.92
